Saltillo, México

10:59 AM CST en Diciembre 22, 2014 (GMT -0600)
Meteosur | Change Station
CLOSE
Current Station
Estación meteorológica personal
Location: Saltillo, COAHUILA DE ZARAGOZA
Altura: 5545 ft
Estaciones meteorológicas cercanas

Alt 5545 ft 25.39 °N, 101.02 °W | Updated 7 minutes ago

Mostly Cloudy
Muy nublado
70.1 ° F
Sensación térmica 74 ° F
N
2.0
Viento Variable Viento desde Oeste

Hoy
Alta -- | Baja -- ° F
--% Posibilidad de precipitaciones
Ayer
Alta -- | Baja -- ° F
Precip. -- pul
7:26 AM 5:59 PM
Luna nueva, 1% visible
Presión 30.02 pul
Visibilidad 10.0 Millas
Nubes Muy nublado 20000 ft
Índice de calor 74 ° F
Punto de rocío 26 ° F
Humedad 19%
Precipitaciones 0.00 pul
Espesor de la nieve No disponible.
UV 2 de una escala de 12
Polen No disponible.
Calidad del aire No disponible.
Flu Activity No disponible.
METAR MMIO 221640Z 15008KT 10SM BKN200 20/06 A3002 RMK 8/008

More Conditions Fewer Conditions

Presión 30.02 pul
Visibilidad 10.0 Millas
Nubes Muy nublado 20000 ft
Índice de calor 74 ° F
Punto de rocío 26 ° F
Humedad 19%
Precipitaciones 0.00 pul
Espesor de la nieve No disponible.
UV 2 de una escala de 12
Polen No disponible.
Calidad del aire No disponible.
Flu Activity No disponible.
METAR MMIO 221640Z 15008KT 10SM BKN200 20/06 A3002 RMK 8/008

More Conditions Fewer Conditions

10-Day Weather Forecast

Almanac

Astronomía

Dec. 22, 2014 Salida Puesta
Hora real
Crepúsculo civil
Crepúsculo náutico
Crepúsculo astronómico
Luna
Horas de luz
Horas de luz
Tomorrow will be .
, % of the Moon is Illuminated

Extremos de hoy

Máximos del país Bajas del país

Community

WunderPhotos

Upload Photos

1,779,641 ¡fotos cargadas!

WunderBlogs® & News

Nearby

Calidad del aire

  Calidad del aire Índice AQ Contaminante
Not available.

Grosos de nieve

Estación Profundido Altura

Actividad de terremotos

Ciudad Distance Mag. Tiempo y dato
Magnitud mínima muestra es 2,5.

Temperaturas de aguas costeras

Lugar Temperatura

Estaciones meteorológicas cercanas